sensor_id;sensor_type;location;lat;lon;timestamp;P1;durP1;ratioP1;P2;durP2;ratioP2
5650;SDS011;40241;52.684;9.758;2022-08-25T00:01:53;2.63;;;2.43;;
5650;SDS011;40241;52.684;9.758;2022-08-25T00:04:19;2.80;;;2.43;;
5650;SDS011;40241;52.684;9.758;2022-08-25T00:06:45;3.60;;;2.90;;
5650;SDS011;40241;52.684;9.758;2022-08-25T00:09:12;2.37;;;2.27;;
5650;SDS011;40241;52.684;9.758;2022-08-25T00:11:39;2.70;;;2.50;;
5650;SDS011;40241;52.684;9.758;2022-08-25T00:14:08;3.17;;;2.87;;
5650;SDS011;40241;52.684;9.758;2022-08-25T00:16:36;2.77;;;2.50;;
5650;SDS011;40241;52.684;9.758;2022-08-25T00:19:03;2.80;;;2.50;;
5650;SDS011;40241;52.684;9.758;2022-08-25T00:21:31;2.77;;;2.57;;
5650;SDS011;40241;52.684;9.758;2022-08-25T00:23:57;3.40;;;2.20;;
5650;SDS011;40241;52.684;9.758;2022-08-25T00:26:23;3.40;;;2.83;;
5650;SDS011;40241;52.684;9.758;2022-08-25T00:28:50;5.00;;;2.47;;
5650;SDS011;40241;52.684;9.758;2022-08-25T00:31:18;2.80;;;2.60;;
5650;SDS011;40241;52.684;9.758;2022-08-25T00:33:46;2.67;;;2.53;;
5650;SDS011;40241;52.684;9.758;2022-08-25T00:36:12;3.00;;;2.70;;
5650;SDS011;40241;52.684;9.758;2022-08-25T00:38:38;2.63;;;2.43;;
5650;SDS011;40241;52.684;9.758;2022-08-25T00:41:06;2.93;;;2.73;;
5650;SDS011;40241;52.684;9.758;2022-08-25T00:43:54;3.83;;;2.40;;
5650;SDS011;40241;52.684;9.758;2022-08-25T00:46:23;2.60;;;2.40;;
5650;SDS011;40241;52.684;9.758;2022-08-25T00:48:55;2.50;;;2.30;;
5650;SDS011;40241;52.684;9.758;2022-08-25T00:51:31;2.30;;;2.20;;
5650;SDS011;40241;52.684;9.758;2022-08-25T00:54:19;2.90;;;2.60;;
5650;SDS011;40241;52.684;9.758;2022-08-25T00:56:48;3.17;;;2.80;;
5650;SDS011;40241;52.684;9.758;2022-08-25T00:59:16;3.27;;;3.07;;
5650;SDS011;40241;52.684;9.758;2022-08-25T01:01:44;3.60;;;2.33;;
5650;SDS011;40241;52.684;9.758;2022-08-25T01:04:10;2.93;;;2.70;;
5650;SDS011;40241;52.684;9.758;2022-08-25T01:06:37;3.00;;;2.83;;
5650;SDS011;40241;52.684;9.758;2022-08-25T01:09:05;4.00;;;3.20;;
5650;SDS011;40241;52.684;9.758;2022-08-25T01:11:31;4.10;;;2.70;;
5650;SDS011;40241;52.684;9.758;2022-08-25T01:13:58;2.30;;;2.20;;
5650;SDS011;40241;52.684;9.758;2022-08-25T01:16:30;2.70;;;2.60;;
5650;SDS011;40241;52.684;9.758;2022-08-25T01:18:57;3.57;;;2.60;;
5650;SDS011;40241;52.684;9.758;2022-08-25T01:21:25;3.27;;;2.97;;
5650;SDS011;40241;52.684;9.758;2022-08-25T01:23:52;3.50;;;3.20;;
5650;SDS011;40241;52.684;9.758;2022-08-25T01:26:23;2.80;;;2.60;;
5650;SDS011;40241;52.684;9.758;2022-08-25T01:28:49;3.53;;;3.17;;
5650;SDS011;40241;52.684;9.758;2022-08-25T01:31:34;2.80;;;2.60;;
5650;SDS011;40241;52.684;9.758;2022-08-25T01:34:00;3.87;;;3.00;;
5650;SDS011;40241;52.684;9.758;2022-08-25T01:36:27;3.60;;;3.30;;
5650;SDS011;40241;52.684;9.758;2022-08-25T01:38:54;3.20;;;3.00;;
5650;SDS011;40241;52.684;9.758;2022-08-25T01:44:08;3.10;;;2.90;;
5650;SDS011;40241;52.684;9.758;2022-08-25T01:46:34;5.80;;;2.97;;
5650;SDS011;40241;52.684;9.758;2022-08-25T01:49:02;3.73;;;3.40;;
5650;SDS011;40241;52.684;9.758;2022-08-25T01:51:32;3.20;;;3.00;;
5650;SDS011;40241;52.684;9.758;2022-08-25T01:54:01;3.20;;;2.90;;
5650;SDS011;40241;52.684;9.758;2022-08-25T01:56:27;4.90;;;3.30;;
5650;SDS011;40241;52.684;9.758;2022-08-25T01:58:52;3.43;;;3.00;;
5650;SDS011;40241;52.684;9.758;2022-08-25T02:01:19;3.80;;;3.10;;
5650;SDS011;40241;52.684;9.758;2022-08-25T02:03:47;5.13;;;3.17;;
5650;SDS011;40241;52.684;9.758;2022-08-25T02:06:18;3.60;;;3.30;;
5650;SDS011;40241;52.684;9.758;2022-08-25T02:08:54;3.43;;;3.13;;
5650;SDS011;40241;52.684;9.758;2022-08-25T02:11:22;3.87;;;3.00;;
5650;SDS011;40241;52.684;9.758;2022-08-25T02:13:50;3.47;;;3.17;;
5650;SDS011;40241;52.684;9.758;2022-08-25T02:16:20;3.80;;;3.50;;
5650;SDS011;40241;52.684;9.758;2022-08-25T02:18:49;3.27;;;3.07;;
5650;SDS011;40241;52.684;9.758;2022-08-25T02:21:15;4.07;;;3.20;;
5650;SDS011;40241;52.684;9.758;2022-08-25T02:23:41;3.47;;;3.20;;
5650;SDS011;40241;52.684;9.758;2022-08-25T02:26:07;5.27;;;3.13;;
5650;SDS011;40241;52.684;9.758;2022-08-25T02:28:33;3.57;;;3.27;;
5650;SDS011;40241;52.684;9.758;2022-08-25T02:31:00;3.97;;;3.67;;
5650;SDS011;40241;52.684;9.758;2022-08-25T02:33:25;3.30;;;3.10;;
5650;SDS011;40241;52.684;9.758;2022-08-25T02:35:51;4.47;;;3.60;;
5650;SDS011;40241;52.684;9.758;2022-08-25T02:38:16;3.97;;;3.67;;
5650;SDS011;40241;52.684;9.758;2022-08-25T02:40:42;4.47;;;4.00;;
5650;SDS011;40241;52.684;9.758;2022-08-25T02:43:07;3.90;;;3.60;;
5650;SDS011;40241;52.684;9.758;2022-08-25T02:45:33;3.77;;;3.30;;
5650;SDS011;40241;52.684;9.758;2022-08-25T02:47:58;4.10;;;3.80;;
5650;SDS011;40241;52.684;9.758;2022-08-25T02:50:24;4.20;;;3.90;;
5650;SDS011;40241;52.684;9.758;2022-08-25T02:52:50;3.47;;;3.27;;
5650;SDS011;40241;52.684;9.758;2022-08-25T02:55:16;3.90;;;3.60;;
5650;SDS011;40241;52.684;9.758;2022-08-25T02:57:42;4.60;;;4.07;;
5650;SDS011;40241;52.684;9.758;2022-08-25T03:00:09;5.13;;;4.63;;
5650;SDS011;40241;52.684;9.758;2022-08-25T03:02:36;3.97;;;3.60;;
5650;SDS011;40241;52.684;9.758;2022-08-25T03:05:02;4.33;;;4.00;;
5650;SDS011;40241;52.684;9.758;2022-08-25T03:07:28;4.13;;;3.83;;
5650;SDS011;40241;52.684;9.758;2022-08-25T03:09:54;4.53;;;4.13;;
5650;SDS011;40241;52.684;9.758;2022-08-25T03:12:19;4.33;;;4.03;;
5650;SDS011;40241;52.684;9.758;2022-08-25T03:14:46;4.70;;;4.40;;
5650;SDS011;40241;52.684;9.758;2022-08-25T03:17:12;4.50;;;4.13;;
5650;SDS011;40241;52.684;9.758;2022-08-25T03:19:37;5.17;;;4.70;;
5650;SDS011;40241;52.684;9.758;2022-08-25T03:22:02;5.27;;;4.50;;
5650;SDS011;40241;52.684;9.758;2022-08-25T03:24:28;5.07;;;4.63;;
5650;SDS011;40241;52.684;9.758;2022-08-25T03:26:53;5.10;;;4.57;;
5650;SDS011;40241;52.684;9.758;2022-08-25T03:29:22;4.17;;;3.83;;
5650;SDS011;40241;52.684;9.758;2022-08-25T03:31:50;5.30;;;4.83;;
5650;SDS011;40241;52.684;9.758;2022-08-25T03:34:17;4.90;;;4.60;;
5650;SDS011;40241;52.684;9.758;2022-08-25T03:36:44;4.40;;;4.10;;
5650;SDS011;40241;52.684;9.758;2022-08-25T03:39:11;5.33;;;4.90;;
5650;SDS011;40241;52.684;9.758;2022-08-25T03:41:37;4.40;;;4.10;;
5650;SDS011;40241;52.684;9.758;2022-08-25T03:44:04;4.43;;;4.00;;
5650;SDS011;40241;52.684;9.758;2022-08-25T03:46:36;5.20;;;4.80;;
5650;SDS011;40241;52.684;9.758;2022-08-25T03:49:04;5.50;;;5.10;;
5650;SDS011;40241;52.684;9.758;2022-08-25T03:51:32;4.13;;;3.83;;
5650;SDS011;40241;52.684;9.758;2022-08-25T03:54:00;5.50;;;5.10;;
5650;SDS011;40241;52.684;9.758;2022-08-25T03:56:27;5.00;;;4.60;;
5650;SDS011;40241;52.684;9.758;2022-08-25T03:58:53;5.50;;;5.00;;
5650;SDS011;40241;52.684;9.758;2022-08-25T04:01:19;5.30;;;4.80;;
5650;SDS011;40241;52.684;9.758;2022-08-25T04:03:45;5.30;;;4.80;;
5650;SDS011;40241;52.684;9.758;2022-08-25T04:06:11;10.53;;;5.03;;
5650;SDS011;40241;52.684;9.758;2022-08-25T04:08:37;5.63;;;5.10;;
5650;SDS011;40241;52.684;9.758;2022-08-25T04:11:14;6.77;;;5.17;;
5650;SDS011;40241;52.684;9.758;2022-08-25T04:13:42;5.27;;;4.80;;
5650;SDS011;40241;52.684;9.758;2022-08-25T04:16:10;5.80;;;5.30;;
5650;SDS011;40241;52.684;9.758;2022-08-25T04:18:38;5.30;;;4.80;;
5650;SDS011;40241;52.684;9.758;2022-08-25T04:21:05;5.27;;;4.87;;
5650;SDS011;40241;52.684;9.758;2022-08-25T04:23:33;5.93;;;5.40;;
5650;SDS011;40241;52.684;9.758;2022-08-25T04:25:58;5.63;;;5.00;;
5650;SDS011;40241;52.684;9.758;2022-08-25T04:28:23;6.07;;;5.03;;
5650;SDS011;40241;52.684;9.758;2022-08-25T04:30:49;5.70;;;5.20;;
5650;SDS011;40241;52.684;9.758;2022-08-25T04:33:14;5.77;;;5.30;;
5650;SDS011;40241;52.684;9.758;2022-08-25T04:35:39;5.57;;;5.10;;
5650;SDS011;40241;52.684;9.758;2022-08-25T04:38:10;5.93;;;5.37;;
5650;SDS011;40241;52.684;9.758;2022-08-25T04:40:35;6.17;;;5.57;;
5650;SDS011;40241;52.684;9.758;2022-08-25T04:43:01;6.13;;;5.63;;
5650;SDS011;40241;52.684;9.758;2022-08-25T04:45:26;6.17;;;5.67;;
5650;SDS011;40241;52.684;9.758;2022-08-25T04:47:51;7.27;;;5.20;;
5650;SDS011;40241;52.684;9.758;2022-08-25T04:50:17;6.00;;;5.50;;
5650;SDS011;40241;52.684;9.758;2022-08-25T04:52:42;5.67;;;5.17;;
5650;SDS011;40241;52.684;9.758;2022-08-25T04:55:08;6.07;;;5.50;;
5650;SDS011;40241;52.684;9.758;2022-08-25T04:57:33;5.40;;;4.90;;
5650;SDS011;40241;52.684;9.758;2022-08-25T04:59:58;6.10;;;5.50;;
5650;SDS011;40241;52.684;9.758;2022-08-25T05:02:24;6.03;;;5.40;;
5650;SDS011;40241;52.684;9.758;2022-08-25T05:04:49;5.23;;;4.73;;
5650;SDS011;40241;52.684;9.758;2022-08-25T05:07:16;6.07;;;5.47;;
5650;SDS011;40241;52.684;9.758;2022-08-25T05:09:41;5.63;;;5.13;;
5650;SDS011;40241;52.684;9.758;2022-08-25T05:12:06;5.20;;;4.70;;
5650;SDS011;40241;52.684;9.758;2022-08-25T05:14:32;7.23;;;5.63;;
5650;SDS011;40241;52.684;9.758;2022-08-25T05:16:57;5.90;;;5.00;;
5650;SDS011;40241;52.684;9.758;2022-08-25T05:19:23;7.70;;;5.80;;
5650;SDS011;40241;52.684;9.758;2022-08-25T05:21:50;6.10;;;5.60;;
5650;SDS011;40241;52.684;9.758;2022-08-25T05:24:16;6.43;;;5.83;;
5650;SDS011;40241;52.684;9.758;2022-08-25T05:26:41;7.23;;;6.10;;
5650;SDS011;40241;52.684;9.758;2022-08-25T05:29:07;5.83;;;5.37;;
5650;SDS011;40241;52.684;9.758;2022-08-25T05:31:34;6.33;;;5.73;;
5650;SDS011;40241;52.684;9.758;2022-08-25T05:34:03;5.50;;;5.00;;
5650;SDS011;40241;52.684;9.758;2022-08-25T05:36:30;5.20;;;4.80;;
5650;SDS011;40241;52.684;9.758;2022-08-25T05:38:56;5.87;;;5.33;;
5650;SDS011;40241;52.684;9.758;2022-08-25T05:41:24;7.23;;;4.63;;
5650;SDS011;40241;52.684;9.758;2022-08-25T05:43:52;5.00;;;4.60;;
5650;SDS011;40241;52.684;9.758;2022-08-25T05:46:18;5.93;;;5.43;;
5650;SDS011;40241;52.684;9.758;2022-08-25T05:48:45;7.07;;;5.20;;
5650;SDS011;40241;52.684;9.758;2022-08-25T05:51:11;5.73;;;5.30;;
5650;SDS011;40241;52.684;9.758;2022-08-25T05:53:39;5.40;;;4.83;;
5650;SDS011;40241;52.684;9.758;2022-08-25T05:56:06;5.10;;;4.70;;
5650;SDS011;40241;52.684;9.758;2022-08-25T05:58:32;5.40;;;4.90;;
5650;SDS011;40241;52.684;9.758;2022-08-25T06:00:58;6.20;;;4.87;;
5650;SDS011;40241;52.684;9.758;2022-08-25T06:03:47;5.30;;;4.87;;
5650;SDS011;40241;52.684;9.758;2022-08-25T06:06:14;5.30;;;4.87;;
5650;SDS011;40241;52.684;9.758;2022-08-25T06:08:40;4.87;;;4.57;;
5650;SDS011;40241;52.684;9.758;2022-08-25T06:11:07;4.87;;;4.53;;
5650;SDS011;40241;52.684;9.758;2022-08-25T06:13:32;5.87;;;5.27;;
5650;SDS011;40241;52.684;9.758;2022-08-25T06:15:58;4.27;;;3.97;;
5650;SDS011;40241;52.684;9.758;2022-08-25T06:18:24;5.07;;;4.57;;
5650;SDS011;40241;52.684;9.758;2022-08-25T06:20:50;6.90;;;5.33;;
5650;SDS011;40241;52.684;9.758;2022-08-25T06:23:15;5.27;;;4.87;;
5650;SDS011;40241;52.684;9.758;2022-08-25T06:25:47;5.23;;;4.80;;
5650;SDS011;40241;52.684;9.758;2022-08-25T06:28:14;4.93;;;4.53;;
5650;SDS011;40241;52.684;9.758;2022-08-25T06:30:39;5.00;;;4.57;;
5650;SDS011;40241;52.684;9.758;2022-08-25T06:33:04;4.70;;;4.40;;
5650;SDS011;40241;52.684;9.758;2022-08-25T06:35:29;5.13;;;4.67;;
5650;SDS011;40241;52.684;9.758;2022-08-25T06:37:55;6.27;;;5.27;;
5650;SDS011;40241;52.684;9.758;2022-08-25T06:40:20;6.37;;;4.73;;
5650;SDS011;40241;52.684;9.758;2022-08-25T06:42:47;8.90;;;4.97;;
5650;SDS011;40241;52.684;9.758;2022-08-25T06:45:13;5.80;;;5.27;;
5650;SDS011;40241;52.684;9.758;2022-08-25T06:47:38;5.20;;;4.13;;
5650;SDS011;40241;52.684;9.758;2022-08-25T06:50:04;4.83;;;4.50;;
5650;SDS011;40241;52.684;9.758;2022-08-25T06:52:30;5.17;;;4.70;;
5650;SDS011;40241;52.684;9.758;2022-08-25T06:54:55;4.70;;;4.40;;
5650;SDS011;40241;52.684;9.758;2022-08-25T06:57:21;5.37;;;4.97;;
5650;SDS011;40241;52.684;9.758;2022-08-25T06:59:46;6.37;;;5.10;;
5650;SDS011;40241;52.684;9.758;2022-08-25T07:02:12;6.43;;;5.17;;
5650;SDS011;40241;52.684;9.758;2022-08-25T07:04:37;6.93;;;5.40;;
5650;SDS011;40241;52.684;9.758;2022-08-25T07:07:02;5.57;;;4.57;;
5650;SDS011;40241;52.684;9.758;2022-08-25T07:09:28;6.83;;;5.20;;
5650;SDS011;40241;52.684;9.758;2022-08-25T07:11:53;10.70;;;4.83;;
5650;SDS011;40241;52.684;9.758;2022-08-25T07:14:19;5.10;;;4.60;;
5650;SDS011;40241;52.684;9.758;2022-08-25T07:16:44;5.17;;;4.67;;
5650;SDS011;40241;52.684;9.758;2022-08-25T07:19:10;6.00;;;5.50;;
5650;SDS011;40241;52.684;9.758;2022-08-25T07:21:37;4.80;;;4.30;;
5650;SDS011;40241;52.684;9.758;2022-08-25T07:24:05;6.03;;;5.00;;
5650;SDS011;40241;52.684;9.758;2022-08-25T07:26:35;7.73;;;4.90;;
5650;SDS011;40241;52.684;9.758;2022-08-25T07:29:02;4.90;;;4.50;;
5650;SDS011;40241;52.684;9.758;2022-08-25T07:31:29;5.93;;;4.80;;
5650;SDS011;40241;52.684;9.758;2022-08-25T07:33:54;6.20;;;4.27;;
5650;SDS011;40241;52.684;9.758;2022-08-25T07:36:38;5.23;;;4.80;;
5650;SDS011;40241;52.684;9.758;2022-08-25T07:39:04;6.33;;;4.60;;
5650;SDS011;40241;52.684;9.758;2022-08-25T07:41:29;5.23;;;4.77;;
5650;SDS011;40241;52.684;9.758;2022-08-25T07:44:05;4.80;;;4.40;;
5650;SDS011;40241;52.684;9.758;2022-08-25T07:46:31;4.90;;;4.50;;
5650;SDS011;40241;52.684;9.758;2022-08-25T07:48:58;8.30;;;4.70;;
5650;SDS011;40241;52.684;9.758;2022-08-25T07:51:23;5.17;;;4.57;;
5650;SDS011;40241;52.684;9.758;2022-08-25T07:53:49;7.77;;;5.07;;
5650;SDS011;40241;52.684;9.758;2022-08-25T07:56:15;5.33;;;4.83;;
5650;SDS011;40241;52.684;9.758;2022-08-25T07:58:40;5.20;;;4.73;;
5650;SDS011;40241;52.684;9.758;2022-08-25T08:01:12;5.10;;;4.57;;
5650;SDS011;40241;52.684;9.758;2022-08-25T08:03:47;5.57;;;5.07;;
5650;SDS011;40241;52.684;9.758;2022-08-25T08:06:14;4.90;;;4.50;;
5650;SDS011;40241;52.684;9.758;2022-08-25T08:08:42;5.00;;;4.50;;
5650;SDS011;40241;52.684;9.758;2022-08-25T08:11:23;7.30;;;4.60;;
5650;SDS011;40241;52.684;9.758;2022-08-25T08:13:53;5.57;;;4.70;;
5650;SDS011;40241;52.684;9.758;2022-08-25T08:16:20;5.90;;;4.93;;
5650;SDS011;40241;52.684;9.758;2022-08-25T08:18:47;5.00;;;4.57;;
5650;SDS011;40241;52.684;9.758;2022-08-25T08:21:13;6.10;;;4.97;;
5650;SDS011;40241;52.684;9.758;2022-08-25T08:23:43;5.33;;;4.83;;
5650;SDS011;40241;52.684;9.758;2022-08-25T08:26:09;5.07;;;4.70;;
5650;SDS011;40241;52.684;9.758;2022-08-25T08:28:35;4.90;;;4.50;;
5650;SDS011;40241;52.684;9.758;2022-08-25T08:31:00;7.43;;;5.07;;
5650;SDS011;40241;52.684;9.758;2022-08-25T08:33:26;5.70;;;5.10;;
5650;SDS011;40241;52.684;9.758;2022-08-25T08:36:11;4.67;;;4.27;;
5650;SDS011;40241;52.684;9.758;2022-08-25T08:38:37;5.40;;;5.00;;
5650;SDS011;40241;52.684;9.758;2022-08-25T08:44:05;5.30;;;4.80;;
5650;SDS011;40241;52.684;9.758;2022-08-25T08:46:39;5.40;;;5.00;;
5650;SDS011;40241;52.684;9.758;2022-08-25T08:49:14;5.30;;;4.80;;
5650;SDS011;40241;52.684;9.758;2022-08-25T08:51:51;4.70;;;4.30;;
5650;SDS011;40241;52.684;9.758;2022-08-25T08:54:23;5.40;;;4.90;;
5650;SDS011;40241;52.684;9.758;2022-08-25T08:56:51;6.37;;;5.50;;
5650;SDS011;40241;52.684;9.758;2022-08-25T08:59:23;5.20;;;4.70;;
5650;SDS011;40241;52.684;9.758;2022-08-25T09:01:57;5.53;;;4.97;;
5650;SDS011;40241;52.684;9.758;2022-08-25T09:04:28;5.77;;;4.90;;
5650;SDS011;40241;52.684;9.758;2022-08-25T09:07:00;6.70;;;4.33;;
5650;SDS011;40241;52.684;9.758;2022-08-25T09:09:29;4.87;;;4.37;;
5650;SDS011;40241;52.684;9.758;2022-08-25T09:12:10;5.00;;;4.50;;
5650;SDS011;40241;52.684;9.758;2022-08-25T09:17:29;8.63;;;4.77;;
5650;SDS011;40241;52.684;9.758;2022-08-25T09:26:13;4.07;;;3.67;;
5650;SDS011;40241;52.684;9.758;2022-08-25T09:31:37;5.60;;;3.80;;
5650;SDS011;40241;52.684;9.758;2022-08-25T09:34:38;4.80;;;4.40;;
5650;SDS011;40241;52.684;9.758;2022-08-25T09:36:57;4.23;;;3.73;;
5650;SDS011;40241;52.684;9.758;2022-08-25T09:39:24;3.83;;;3.40;;
5650;SDS011;40241;52.684;9.758;2022-08-25T09:41:54;3.83;;;3.53;;
5650;SDS011;40241;52.684;9.758;2022-08-25T09:44:25;8.30;;;3.80;;
5650;SDS011;40241;52.684;9.758;2022-08-25T09:49:46;4.10;;;3.50;;
5650;SDS011;40241;52.684;9.758;2022-08-25T09:54:47;4.23;;;3.93;;
5650;SDS011;40241;52.684;9.758;2022-08-25T09:59:52;6.87;;;3.77;;
5650;SDS011;40241;52.684;9.758;2022-08-25T10:02:27;4.77;;;3.83;;
5650;SDS011;40241;52.684;9.758;2022-08-25T10:04:53;4.60;;;3.80;;
5650;SDS011;40241;52.684;9.758;2022-08-25T10:07:31;3.87;;;3.57;;
5650;SDS011;40241;52.684;9.758;2022-08-25T10:10:03;3.93;;;3.63;;
5650;SDS011;40241;52.684;9.758;2022-08-25T10:12:41;6.17;;;4.30;;
5650;SDS011;40241;52.684;9.758;2022-08-25T10:17:52;3.37;;;3.10;;
5650;SDS011;40241;52.684;9.758;2022-08-25T10:20:20;4.07;;;3.43;;
5650;SDS011;40241;52.684;9.758;2022-08-25T10:22:50;4.60;;;3.77;;
5650;SDS011;40241;52.684;9.758;2022-08-25T10:25:28;5.40;;;3.67;;
5650;SDS011;40241;52.684;9.758;2022-08-25T10:28:09;4.03;;;3.50;;
5650;SDS011;40241;52.684;9.758;2022-08-25T10:42:26;4.37;;;3.40;;
5650;SDS011;40241;52.684;9.758;2022-08-25T10:50:32;4.70;;;3.30;;
5650;SDS011;40241;52.684;9.758;2022-08-25T10:55:54;3.53;;;3.33;;
5650;SDS011;40241;52.684;9.758;2022-08-25T11:01:56;7.20;;;4.47;;
5650;SDS011;40241;52.684;9.758;2022-08-25T11:05:40;5.00;;;4.07;;
5650;SDS011;40241;52.684;9.758;2022-08-25T11:07:35;5.47;;;4.03;;
5650;SDS011;40241;52.684;9.758;2022-08-25T11:10:07;4.67;;;4.27;;
5650;SDS011;40241;52.684;9.758;2022-08-25T11:12:38;5.40;;;4.00;;
5650;SDS011;40241;52.684;9.758;2022-08-25T11:20:31;4.63;;;4.23;;
5650;SDS011;40241;52.684;9.758;2022-08-25T11:26:04;4.23;;;3.90;;
5650;SDS011;40241;52.684;9.758;2022-08-25T11:28:39;5.17;;;3.90;;
5650;SDS011;40241;52.684;9.758;2022-08-25T11:31:16;3.53;;;3.33;;
5650;SDS011;40241;52.684;9.758;2022-08-25T11:33:42;3.87;;;3.57;;
5650;SDS011;40241;52.684;9.758;2022-08-25T11:39:08;4.03;;;3.37;;
5650;SDS011;40241;52.684;9.758;2022-08-25T11:41:51;3.80;;;3.50;;
5650;SDS011;40241;52.684;9.758;2022-08-25T11:50:01;4.40;;;3.40;;
5650;SDS011;40241;52.684;9.758;2022-08-25T11:55:06;3.70;;;3.40;;
5650;SDS011;40241;52.684;9.758;2022-08-25T11:57:40;4.07;;;3.77;;
5650;SDS011;40241;52.684;9.758;2022-08-25T12:00:11;3.60;;;3.40;;
5650;SDS011;40241;52.684;9.758;2022-08-25T12:02:43;3.53;;;3.23;;
5650;SDS011;40241;52.684;9.758;2022-08-25T12:05:47;3.53;;;3.23;;
5650;SDS011;40241;52.684;9.758;2022-08-25T12:08:04;443.17;;;406.00;;
5650;SDS011;40241;52.684;9.758;2022-08-25T12:10:53;438.70;;;405.00;;
5650;SDS011;40241;52.684;9.758;2022-08-25T12:18:59;464.30;;;428.13;;
5650;SDS011;40241;52.684;9.758;2022-08-25T12:21:50;397.23;;;365.07;;
5650;SDS011;40241;52.684;9.758;2022-08-25T12:24:21;447.87;;;411.23;;
5650;SDS011;40241;52.684;9.758;2022-08-25T12:30:09;484.23;;;444.33;;
5650;SDS011;40241;52.684;9.758;2022-08-25T12:35:52;446.93;;;410.83;;
5650;SDS011;40241;52.684;9.758;2022-08-25T12:41:15;457.90;;;420.07;;
5650;SDS011;40241;52.684;9.758;2022-08-25T12:43:46;449.30;;;412.40;;
5650;SDS011;40241;52.684;9.758;2022-08-25T12:52:09;420.37;;;387.17;;
5650;SDS011;40241;52.684;9.758;2022-08-25T12:55:00;437.97;;;404.67;;
5650;SDS011;40241;52.684;9.758;2022-08-25T13:00:16;428.73;;;394.60;;
5650;SDS011;40241;52.684;9.758;2022-08-25T13:02:50;434.27;;;399.77;;
5650;SDS011;40241;52.684;9.758;2022-08-25T13:07:56;429.53;;;396.13;;
5650;SDS011;40241;52.684;9.758;2022-08-25T13:13:21;434.00;;;400.90;;
5650;SDS011;40241;52.684;9.758;2022-08-25T13:16:07;421.90;;;389.10;;
5650;SDS011;40241;52.684;9.758;2022-08-25T13:18:40;434.07;;;399.83;;
5650;SDS011;40241;52.684;9.758;2022-08-25T13:23:43;422.63;;;387.67;;
5650;SDS011;40241;52.684;9.758;2022-08-25T13:26:14;442.80;;;406.90;;
5650;SDS011;40241;52.684;9.758;2022-08-25T13:28:49;438.73;;;404.17;;
5650;SDS011;40241;52.684;9.758;2022-08-25T13:31:19;473.77;;;433.30;;
5650;SDS011;40241;52.684;9.758;2022-08-25T13:34:05;456.10;;;419.17;;
5650;SDS011;40241;52.684;9.758;2022-08-25T13:36:34;449.03;;;414.43;;
5650;SDS011;40241;52.684;9.758;2022-08-25T13:39:26;463.50;;;426.00;;
5650;SDS011;40241;52.684;9.758;2022-08-25T13:41:53;436.97;;;402.60;;
5650;SDS011;40241;52.684;9.758;2022-08-25T13:44:21;443.70;;;407.30;;
5650;SDS011;40241;52.684;9.758;2022-08-25T13:49:42;429.00;;;392.57;;
5650;SDS011;40241;52.684;9.758;2022-08-25T13:52:42;431.33;;;394.23;;
5650;SDS011;40241;52.684;9.758;2022-08-25T13:55:01;428.23;;;390.80;;
5650;SDS011;40241;52.684;9.758;2022-08-25T13:57:27;410.77;;;376.90;;
5650;SDS011;40241;52.684;9.758;2022-08-25T14:00:02;449.80;;;412.03;;
5650;SDS011;40241;52.684;9.758;2022-08-25T14:02:48;409.23;;;373.17;;
5650;SDS011;40241;52.684;9.758;2022-08-25T14:05:26;451.87;;;411.77;;
5650;SDS011;40241;52.684;9.758;2022-08-25T14:07:56;417.17;;;380.83;;
5650;SDS011;40241;52.684;9.758;2022-08-25T14:10:36;431.20;;;393.57;;
5650;SDS011;40241;52.684;9.758;2022-08-25T14:15:38;421.80;;;385.20;;
5650;SDS011;40241;52.684;9.758;2022-08-25T14:18:27;407.43;;;371.97;;
5650;SDS011;40241;52.684;9.758;2022-08-25T14:20:55;406.23;;;370.17;;
5650;SDS011;40241;52.684;9.758;2022-08-25T14:23:23;447.63;;;408.63;;
5650;SDS011;40241;52.684;9.758;2022-08-25T14:25:52;409.10;;;372.03;;
5650;SDS011;40241;52.684;9.758;2022-08-25T14:28:21;426.33;;;387.87;;
5650;SDS011;40241;52.684;9.758;2022-08-25T14:30:53;422.30;;;383.70;;
5650;SDS011;40241;52.684;9.758;2022-08-25T14:33:23;390.63;;;356.67;;
5650;SDS011;40241;52.684;9.758;2022-08-25T14:35:53;397.53;;;361.67;;
5650;SDS011;40241;52.684;9.758;2022-08-25T14:38:21;414.00;;;377.70;;
5650;SDS011;40241;52.684;9.758;2022-08-25T14:40:47;387.77;;;353.47;;
5650;SDS011;40241;52.684;9.758;2022-08-25T14:43:13;434.03;;;396.97;;
5650;SDS011;40241;52.684;9.758;2022-08-25T14:45:40;392.07;;;356.57;;
5650;SDS011;40241;52.684;9.758;2022-08-25T14:48:08;422.90;;;386.73;;
5650;SDS011;40241;52.684;9.758;2022-08-25T14:50:38;431.63;;;393.37;;
5650;SDS011;40241;52.684;9.758;2022-08-25T14:53:05;429.50;;;390.33;;
5650;SDS011;40241;52.684;9.758;2022-08-25T14:55:32;451.60;;;412.20;;
5650;SDS011;40241;52.684;9.758;2022-08-25T14:57:57;413.97;;;378.07;;
5650;SDS011;40241;52.684;9.758;2022-08-25T15:00:23;433.87;;;397.40;;
5650;SDS011;40241;52.684;9.758;2022-08-25T15:02:49;400.57;;;364.60;;
5650;SDS011;40241;52.684;9.758;2022-08-25T15:05:16;401.77;;;365.43;;
5650;SDS011;40241;52.684;9.758;2022-08-25T15:07:48;404.93;;;370.30;;
5650;SDS011;40241;52.684;9.758;2022-08-25T15:10:32;398.70;;;363.13;;
5650;SDS011;40241;52.684;9.758;2022-08-25T15:12:57;418.57;;;380.90;;
5650;SDS011;40241;52.684;9.758;2022-08-25T15:15:23;383.33;;;349.80;;
5650;SDS011;40241;52.684;9.758;2022-08-25T15:17:50;429.07;;;389.50;;
5650;SDS011;40241;52.684;9.758;2022-08-25T15:20:16;427.57;;;393.27;;
5650;SDS011;40241;52.684;9.758;2022-08-25T15:22:41;423.07;;;386.87;;
5650;SDS011;40241;52.684;9.758;2022-08-25T15:25:09;442.57;;;404.80;;
5650;SDS011;40241;52.684;9.758;2022-08-25T15:27:35;422.07;;;387.37;;
5650;SDS011;40241;52.684;9.758;2022-08-25T15:30:00;435.63;;;398.17;;
5650;SDS011;40241;52.684;9.758;2022-08-25T15:32:26;423.80;;;386.73;;
5650;SDS011;40241;52.684;9.758;2022-08-25T15:34:52;426.83;;;391.30;;
5650;SDS011;40241;52.684;9.758;2022-08-25T15:37:18;429.90;;;393.30;;
5650;SDS011;40241;52.684;9.758;2022-08-25T15:39:44;433.97;;;398.27;;
5650;SDS011;40241;52.684;9.758;2022-08-25T15:42:10;448.13;;;410.43;;
5650;SDS011;40241;52.684;9.758;2022-08-25T15:44:39;428.90;;;391.70;;
5650;SDS011;40241;52.684;9.758;2022-08-25T15:47:05;421.00;;;386.77;;
5650;SDS011;40241;52.684;9.758;2022-08-25T15:49:30;411.13;;;376.73;;
5650;SDS011;40241;52.684;9.758;2022-08-25T15:51:56;416.63;;;380.90;;
5650;SDS011;40241;52.684;9.758;2022-08-25T15:54:22;444.97;;;408.53;;
5650;SDS011;40241;52.684;9.758;2022-08-25T15:56:49;424.93;;;387.30;;
5650;SDS011;40241;52.684;9.758;2022-08-25T15:59:14;439.80;;;402.03;;
5650;SDS011;40241;52.684;9.758;2022-08-25T16:01:40;417.90;;;382.30;;
5650;SDS011;40241;52.684;9.758;2022-08-25T16:04:08;436.87;;;400.07;;
5650;SDS011;40241;52.684;9.758;2022-08-25T16:06:33;418.53;;;383.83;;
5650;SDS011;40241;52.684;9.758;2022-08-25T16:08:59;401.53;;;366.80;;
5650;SDS011;40241;52.684;9.758;2022-08-25T16:11:26;404.13;;;371.60;;
5650;SDS011;40241;52.684;9.758;2022-08-25T16:13:53;417.83;;;382.23;;
5650;SDS011;40241;52.684;9.758;2022-08-25T16:16:20;406.40;;;373.63;;
5650;SDS011;40241;52.684;9.758;2022-08-25T16:18:47;414.57;;;380.27;;
5650;SDS011;40241;52.684;9.758;2022-08-25T16:21:15;404.30;;;369.53;;
5650;SDS011;40241;52.684;9.758;2022-08-25T16:23:43;380.93;;;350.43;;
5650;SDS011;40241;52.684;9.758;2022-08-25T16:26:09;434.23;;;397.47;;
5650;SDS011;40241;52.684;9.758;2022-08-25T16:28:36;403.23;;;370.40;;
5650;SDS011;40241;52.684;9.758;2022-08-25T16:31:04;433.37;;;398.27;;
5650;SDS011;40241;52.684;9.758;2022-08-25T16:33:32;426.73;;;391.70;;
5650;SDS011;40241;52.684;9.758;2022-08-25T16:36:07;424.87;;;390.33;;
5650;SDS011;40241;52.684;9.758;2022-08-25T16:38:35;423.17;;;388.00;;
5650;SDS011;40241;52.684;9.758;2022-08-25T16:41:08;415.03;;;378.07;;
5650;SDS011;40241;52.684;9.758;2022-08-25T16:43:36;412.27;;;377.10;;
5650;SDS011;40241;52.684;9.758;2022-08-25T16:46:04;400.33;;;365.13;;